Time;durP1;ratioP1;P1;durP2;ratioP2;P2;SDS_P1;SDS_P2;PMS_P1;PMS_P2;Temp;Humidity;BMP_temperature;BMP_pressure;BME280_temperature;BME280_humidity;BME280_pressure;Samples;Min_cycle;Max_cycle;Signal;HPM_P1;HPM_P2
2022/03/06 00:00:01;;;;;;;9.57;8.57;;;1.00;99.90;;;;;;5020597;28;20060;-75
2022/03/06 00:02:26;;;;;;;8.88;7.72;;;1.00;99.90;;;;;;5022665;28;20082;-73
2022/03/06 00:04:52;;;;;;;9.35;7.78;;;1.00;99.90;;;;;;5023738;28;20029;-74
2022/03/06 00:07:18;;;;;;;8.90;7.97;;;1.00;99.90;;;;;;5020140;28;20018;-74
2022/03/06 00:09:44;;;;;;;8.52;7.40;;;0.90;99.90;;;;;;5023205;28;20541;-73
2022/03/06 00:12:09;;;;;;;9.93;8.05;;;1.00;99.90;;;;;;5023116;28;20038;-74
2022/03/06 00:14:35;;;;;;;9.02;8.15;;;1.00;99.90;;;;;;5023298;28;20021;-75
2022/03/06 00:17:00;;;;;;;9.07;8.18;;;1.00;99.90;;;;;;5024973;28;20344;-76
2022/03/06 00:19:26;;;;;;;8.55;7.72;;;1.00;99.90;;;;;;5019604;28;20022;-74
2022/03/06 00:21:52;;;;;;;9.02;8.13;;;1.00;99.90;;;;;;5011934;28;20415;-75
2022/03/06 00:24:17;;;;;;;9.82;8.40;;;1.30;99.90;;;;;;5012403;28;20095;-76
2022/03/06 00:26:43;;;;;;;9.23;8.30;;;0.80;99.90;;;;;;5010263;28;20041;-75
2022/03/06 00:29:08;;;;;;;9.70;8.70;;;0.70;99.90;;;;;;5043234;28;20034;-75
2022/03/06 00:31:34;;;;;;;10.43;9.20;;;0.60;99.90;;;;;;5011930;28;20041;-75
2022/03/06 00:33:59;;;;;;;9.70;8.63;;;0.60;99.90;;;;;;5012024;28;20053;-75
2022/03/06 00:36:25;;;;;;;10.27;9.18;;;0.50;99.90;;;;;;5043980;28;20417;-75
2022/03/06 00:38:50;;;;;;;11.75;10.15;;;0.20;99.90;;;;;;5012831;28;20084;-75
2022/03/06 00:41:16;;;;;;;11.10;10.00;;;0.10;99.90;;;;;;5011729;28;20018;-75
2022/03/06 00:43:42;;;;;;;10.80;9.68;;;0.00;99.90;;;;;;5012097;28;20021;-75
2022/03/06 00:46:08;;;;;;;11.70;9.95;;;-0.20;99.90;;;;;;5011930;28;20105;-75
2022/03/06 00:48:34;;;;;;;11.70;10.30;;;0.00;99.90;;;;;;5011640;28;20041;-75
2022/03/06 00:50:59;;;;;;;11.07;9.90;;;-0.10;99.90;;;;;;5010011;28;20026;-77
2022/03/06 00:53:25;;;;;;;12.43;9.75;;;-0.10;99.90;;;;;;5044763;28;20483;-76
2022/03/06 00:55:51;;;;;;;11.85;10.50;;;0.00;99.90;;;;;;5010329;28;20543;-75
2022/03/06 00:58:17;;;;;;;13.18;10.82;;;0.00;99.90;;;;;;5012893;28;20392;-76
2022/03/06 01:00:46;;;;;;;13.50;10.23;;;0.00;99.90;;;;;;5014674;28;20022;-75
2022/03/06 01:03:13;;;;;;;11.10;9.60;;;0.10;99.90;;;;;;5015071;28;20024;-75
2022/03/06 01:05:39;;;;;;;10.95;9.85;;;0.10;99.90;;;;;;5020321;28;20372;-74
2022/03/06 01:08:05;;;;;;;11.32;10.00;;;0.20;99.90;;;;;;5033674;28;20025;-74
2022/03/06 01:10:32;;;;;;;11.30;10.13;;;0.20;99.90;;;;;;5033033;28;20030;-76
2022/03/06 01:12:58;;;;;;;11.38;9.45;;;0.30;99.90;;;;;;5034479;28;20553;-75
2022/03/06 01:15:24;;;;;;;10.38;9.35;;;0.30;99.90;;;;;;5033436;28;20025;-74
2022/03/06 01:17:50;;;;;;;11.65;10.32;;;0.20;99.90;;;;;;5033555;28;20026;-74
2022/03/06 01:20:17;;;;;;;11.52;10.10;;;0.00;99.90;;;;;;5034262;28;20020;-75
2022/03/06 01:22:44;;;;;;;11.77;10.02;;;0.20;99.90;;;;;;5034780;28;20120;-74
2022/03/06 01:25:11;;;;;;;12.10;9.98;;;0.00;99.90;;;;;;5024801;28;20476;-75
2022/03/06 01:27:36;;;;;;;11.07;9.98;;;0.10;99.90;;;;;;5014437;28;20050;-75
2022/03/06 01:30:05;;;;;;;11.75;10.55;;;0.10;99.90;;;;;;5045913;28;20069;-76
2022/03/06 01:32:31;;;;;;;12.90;11.00;;;-0.10;99.90;;;;;;5012726;28;20435;-76
2022/03/06 01:34:57;;;;;;;13.35;11.00;;;-0.10;99.90;;;;;;5015878;28;20044;-76
2022/03/06 01:37:24;;;;;;;12.15;10.77;;;-0.10;99.90;;;;;;5015437;28;20424;-75
2022/03/06 01:39:50;;;;;;;11.35;10.15;;;-0.20;99.90;;;;;;5014751;28;20025;-75
2022/03/06 01:42:16;;;;;;;12.82;10.77;;;-0.30;99.90;;;;;;5012566;28;20054;-76
2022/03/06 01:44:45;;;;;;;11.55;10.35;;;-0.20;99.90;;;;;;5014281;28;20057;-76
2022/03/06 01:47:10;;;;;;;10.98;9.60;;;-0.20;99.90;;;;;;5014109;28;20033;-75
2022/03/06 01:49:36;;;;;;;14.20;10.77;;;-0.20;99.90;;;;;;5045985;28;20022;-75
2022/03/06 01:52:01;;;;;;;12.57;11.25;;;-0.30;99.90;;;;;;5014320;28;20388;-75
2022/03/06 01:54:27;;;;;;;15.32;12.05;;;-0.20;99.90;;;;;;5027016;28;20527;-76
2022/03/06 01:56:53;;;;;;;14.25;11.07;;;-0.20;99.90;;;;;;5014272;28;20026;-74
2022/03/06 01:59:18;;;;;;;13.50;12.10;;;-0.20;99.90;;;;;;5033847;28;20029;-75
2022/03/06 02:01:44;;;;;;;13.30;11.93;;;-0.20;99.90;;;;;;5032110;28;20026;-74
2022/03/06 02:04:10;;;;;;;13.57;12.02;;;-0.30;99.90;;;;;;5033665;28;20029;-74
2022/03/06 02:06:37;;;;;;;13.32;11.40;;;-0.30;99.90;;;;;;5033668;28;20029;-74
2022/03/06 02:09:03;;;;;;;12.75;11.35;;;-0.40;99.90;;;;;;5032139;28;20550;-72
2022/03/06 02:11:28;;;;;;;13.05;11.63;;;-0.40;99.90;;;;;;5032405;28;20029;-73
2022/03/06 02:13:55;;;;;;;14.23;11.18;;;-0.50;99.90;;;;;;5033315;28;20025;-73
2022/03/06 02:16:21;;;;;;;12.68;11.13;;;-0.50;99.90;;;;;;5033381;28;20029;-73
2022/03/06 02:18:46;;;;;;;12.68;10.88;;;-0.50;99.90;;;;;;5033306;28;20079;-74
2022/03/06 02:21:14;;;;;;;13.20;11.18;;;-0.60;99.90;;;;;;5033015;28;20087;-74
2022/03/06 02:23:40;;;;;;;12.75;11.45;;;-0.60;99.90;;;;;;5032045;28;20545;-74
2022/03/06 02:26:07;;;;;;;14.23;11.27;;;-0.60;99.90;;;;;;5018284;28;20022;-74
2022/03/06 02:28:33;;;;;;;12.93;11.38;;;-0.60;99.90;;;;;;5014499;28;20426;-74
2022/03/06 02:30:59;;;;;;;13.20;10.27;;;-0.60;99.90;;;;;;5012907;28;20029;-75
2022/03/06 02:33:25;;;;;;;11.90;10.55;;;-0.60;99.90;;;;;;5013336;28;20076;-75
2022/03/06 02:35:50;;;;;;;13.02;11.38;;;-0.50;99.90;;;;;;5026210;28;20026;-75
2022/03/06 02:38:16;;;;;;;12.20;10.90;;;-0.60;99.90;;;;;;5033473;28;20060;-73
2022/03/06 02:40:44;;;;;;;11.57;10.38;;;-0.60;99.90;;;;;;5026820;28;20460;-73
2022/03/06 02:43:11;;;;;;;12.32;11.02;;;-0.60;99.90;;;;;;5011574;28;20155;-75
2022/03/06 02:45:38;;;;;;;11.90;10.68;;;-0.60;99.90;;;;;;5020966;28;20080;-75
2022/03/06 02:48:04;;;;;;;11.70;10.50;;;-0.60;99.90;;;;;;5012851;28;20033;-73
2022/03/06 02:50:32;;;;;;;10.73;9.63;;;-0.50;99.90;;;;;;5012550;28;20064;-74
2022/03/06 02:53:00;;;;;;;13.55;10.95;;;-0.50;99.90;;;;;;5012848;28;20029;-75
2022/03/06 02:55:26;;;;;;;15.32;10.00;;;-0.40;99.90;;;;;;5013059;28;20029;-74
2022/03/06 02:57:52;;;;;;;11.23;10.02;;;-0.50;99.90;;;;;;5013301;28;20034;-74
2022/03/06 03:00:19;;;;;;;77.97;59.28;;;-0.40;99.90;;;;;;5012774;28;20022;-76
2022/03/06 03:02:46;;;;;;;33.00;26.58;;;-0.40;99.90;;;;;;5011897;28;20032;-75
2022/03/06 03:05:12;;;;;;;23.00;18.05;;;-0.40;99.90;;;;;;5013584;28;20053;-75
2022/03/06 03:07:39;;;;;;;12.40;10.70;;;-0.30;99.90;;;;;;5013351;28;20451;-75
2022/03/06 03:10:10;;;;;;;13.23;11.38;;;-0.30;99.90;;;;;;5011140;28;20054;-75
2022/03/06 03:12:36;;;;;;;10.85;9.77;;;-0.40;99.90;;;;;;5010992;28;20136;-75
2022/03/06 03:15:06;;;;;;;11.93;10.73;;;-0.30;99.90;;;;;;5017520;28;20456;-75
2022/03/06 03:17:32;;;;;;;11.30;10.10;;;-0.30;99.90;;;;;;5012532;28;20101;-76
2022/03/06 03:19:57;;;;;;;12.85;10.10;;;-0.20;99.90;;;;;;5028271;28;20116;-77
2022/03/06 03:22:23;;;;;;;11.48;10.30;;;-0.20;99.90;;;;;;5031750;28;20069;-76
2022/03/06 03:24:48;;;;;;;11.63;10.43;;;-0.20;99.90;;;;;;5024868;28;20018;-76
2022/03/06 03:27:14;;;;;;;11.18;9.93;;;-0.20;99.90;;;;;;5011253;28;20076;-75
2022/03/06 03:29:40;;;;;;;11.55;10.18;;;-0.20;99.90;;;;;;5012014;28;20033;-74
2022/03/06 03:32:06;;;;;;;11.45;10.35;;;-0.20;99.90;;;;;;5011956;28;20408;-75
2022/03/06 03:34:31;;;;;;;11.77;10.45;;;-0.20;99.90;;;;;;5012275;28;20018;-75
2022/03/06 03:36:57;;;;;;;11.43;10.23;;;-0.20;99.90;;;;;;5011139;28;20037;-75
2022/03/06 03:39:22;;;;;;;11.60;10.40;;;-0.20;99.90;;;;;;5010780;28;20026;-74
2022/03/06 03:41:48;;;;;;;11.80;10.38;;;-0.10;99.90;;;;;;5011812;28;20029;-74
2022/03/06 03:44:14;;;;;;;15.32;10.63;;;-0.10;99.90;;;;;;5012015;28;20033;-73
2022/03/06 03:46:39;;;;;;;11.45;10.13;;;-0.10;99.90;;;;;;5012434;28;20026;-73
2022/03/06 03:49:05;;;;;;;12.23;10.00;;;-0.10;99.90;;;;;;5011879;28;20108;-73
2022/03/06 03:51:31;;;;;;;14.73;10.43;;;-0.10;99.90;;;;;;5011747;28;20030;-74
2022/03/06 03:53:56;;;;;;;11.60;10.40;;;0.10;99.90;;;;;;5012225;28;20021;-74
2022/03/06 03:56:22;;;;;;;11.48;10.35;;;-0.10;99.90;;;;;;5011982;28;20032;-74
2022/03/06 03:58:48;;;;;;;11.25;10.07;;;0.00;99.90;;;;;;5015096;28;20022;-74
2022/03/06 04:01:14;;;;;;;11.50;10.27;;;0.00;99.90;;;;;;5031539;28;20541;-76
2022/03/06 04:03:39;;;;;;;12.27;10.98;;;0.00;99.90;;;;;;5031553;28;20037;-76
2022/03/06 04:06:05;;;;;;;12.50;11.20;;;0.00;99.90;;;;;;5032005;28;20052;-74
2022/03/06 04:08:30;;;;;;;12.98;11.52;;;0.00;99.90;;;;;;5031716;28;20044;-76
2022/03/06 04:10:59;;;;;;;12.25;10.93;;;0.10;99.90;;;;;;5030196;28;20072;-74
2022/03/06 04:13:26;;;;;;;12.77;11.38;;;0.10;99.90;;;;;;5030780;28;20048;-76
2022/03/06 04:15:52;;;;;;;13.07;11.20;;;0.40;99.90;;;;;;5030743;28;20053;-75
2022/03/06 04:18:18;;;;;;;13.43;12.00;;;0.10;99.90;;;;;;5031483;28;20040;-76
2022/03/06 04:20:44;;;;;;;12.85;11.48;;;0.10;99.90;;;;;;5031202;28;20030;-76
2022/03/06 04:23:09;;;;;;;13.20;11.77;;;0.10;99.90;;;;;;5031642;28;20167;-74
2022/03/06 04:25:35;;;;;;;12.80;11.50;;;0.20;99.90;;;;;;5018547;28;20096;-73
2022/03/06 04:28:00;;;;;;;13.68;11.43;;;0.20;99.90;;;;;;5011642;28;20026;-72
2022/03/06 04:30:26;;;;;;;31.40;26.70;;;0.20;99.90;;;;;;5010095;28;20032;-72
2022/03/06 04:32:52;;;;;;;15.95;13.70;;;0.20;99.90;;;;;;5011751;28;20030;-73
2022/03/06 04:35:17;;;;;;;14.10;12.15;;;0.30;99.90;;;;;;5023762;28;20017;-73
2022/03/06 04:37:43;;;;;;;14.25;12.43;;;0.30;99.90;;;;;;5032356;28;20484;-72
2022/03/06 04:40:10;;;;;;;14.48;13.05;;;0.30;99.90;;;;;;5014189;28;20076;-73
2022/03/06 04:42:36;;;;;;;15.57;12.98;;;0.30;99.90;;;;;;5018384;28;20054;-72
2022/03/06 04:45:02;;;;;;;15.40;12.15;;;0.30;99.90;;;;;;5033857;28;20029;-75
2022/03/06 04:47:28;;;;;;;15.30;12.70;;;0.30;99.90;;;;;;5034955;28;20500;-74
2022/03/06 04:49:53;;;;;;;14.00;12.55;;;0.30;99.90;;;;;;5035569;28;20315;-75
2022/03/06 04:52:19;;;;;;;17.05;12.82;;;0.30;99.90;;;;;;5033734;28;20040;-78
2022/03/06 04:54:44;;;;;;;13.70;12.20;;;0.30;99.90;;;;;;5033571;28;20387;-76
2022/03/06 04:57:10;;;;;;;14.88;12.90;;;0.30;99.90;;;;;;5035026;28;20026;-76
2022/03/06 04:59:35;;;;;;;14.80;13.30;;;0.30;99.90;;;;;;5035114;28;20072;-75
2022/03/06 05:02:01;;;;;;;17.40;12.88;;;0.30;99.90;;;;;;5034816;28;20030;-75
2022/03/06 05:04:26;;;;;;;14.35;12.85;;;0.30;99.90;;;;;;5035305;28;20437;-76
2022/03/06 05:06:52;;;;;;;14.90;12.10;;;0.10;99.90;;;;;;5034063;28;20542;-76
2022/03/06 05:09:18;;;;;;;12.75;11.45;;;0.20;99.90;;;;;;5033874;28;20264;-77
2022/03/06 05:11:43;;;;;;;14.27;12.55;;;0.20;99.90;;;;;;5033414;28;20467;-76
2022/03/06 05:14:09;;;;;;;15.00;11.77;;;0.20;99.90;;;;;;5033908;28;20061;-77
2022/03/06 05:16:34;;;;;;;14.15;12.45;;;0.30;99.90;;;;;;5018125;28;20109;-75
2022/03/06 05:19:00;;;;;;;14.05;12.52;;;0.30;99.90;;;;;;5013873;28;20112;-76
2022/03/06 05:21:26;;;;;;;17.13;13.40;;;0.30;99.90;;;;;;5013292;28;20535;-75
2022/03/06 05:23:52;;;;;;;16.83;12.60;;;0.30;99.90;;;;;;5013805;28;20048;-76
2022/03/06 05:26:17;;;;;;;15.32;13.32;;;0.30;99.90;;;;;;5016375;28;20480;-75
2022/03/06 05:28:43;;;;;;;14.27;12.70;;;0.20;99.90;;;;;;5014812;28;20065;-76
2022/03/06 05:31:09;;;;;;;16.17;13.02;;;0.30;99.90;;;;;;5015119;28;20052;-76
2022/03/06 05:33:35;;;;;;;15.15;13.07;;;0.20;99.90;;;;;;5014503;28;20034;-76
2022/03/06 05:36:01;;;;;;;14.82;13.27;;;0.20;99.90;;;;;;5028397;28;20025;-75
2022/03/06 05:38:27;;;;;;;17.95;13.52;;;0.20;99.90;;;;;;5024159;28;20025;-75
2022/03/06 05:40:52;;;;;;;14.73;13.13;;;0.20;99.90;;;;;;5031789;28;20030;-75
2022/03/06 05:43:18;;;;;;;15.00;13.43;;;0.10;99.90;;;;;;5014401;28;20061;-76
2022/03/06 05:45:45;;;;;;;16.02;13.63;;;0.10;99.90;;;;;;5012203;28;20037;-75
2022/03/06 05:48:11;;;;;;;14.55;13.05;;;0.10;99.90;;;;;;5013376;28;20026;-74
2022/03/06 05:50:36;;;;;;;14.70;13.13;;;0.10;99.90;;;;;;5016149;28;20101;-74
2022/03/06 05:53:02;;;;;;;15.27;13.63;;;0.10;99.90;;;;;;5025749;28;20454;-74
2022/03/06 05:55:30;;;;;;;15.43;13.75;;;0.20;99.90;;;;;;5027668;28;20025;-74
2022/03/06 05:57:56;;;;;;;14.57;13.07;;;0.10;99.90;;;;;;5023315;28;20018;-74
2022/03/06 06:00:22;;;;;;;16.40;13.68;;;0.10;99.90;;;;;;5034134;28;20037;-74
2022/03/06 06:02:47;;;;;;;15.63;13.50;;;0.20;99.90;;;;;;5024236;28;20041;-74
2022/03/06 06:05:15;;;;;;;15.15;13.20;;;0.20;99.90;;;;;;5014371;28;20157;-74
2022/03/06 06:07:40;;;;;;;14.98;13.38;;;0.20;99.90;;;;;;5014264;28;20045;-76
2022/03/06 06:10:07;;;;;;;16.90;13.93;;;0.20;99.90;;;;;;5026778;28;20495;-75
2022/03/06 06:12:32;;;;;;;16.23;13.52;;;0.20;99.90;;;;;;5022712;28;20060;-75
2022/03/06 06:14:58;;;;;;;17.98;14.73;;;0.20;99.90;;;;;;5020419;28;20037;-75
2022/03/06 06:17:24;;;;;;;15.93;13.95;;;0.20;99.90;;;;;;5013671;28;20022;-74
2022/03/06 06:19:49;;;;;;;17.30;13.68;;;0.20;99.90;;;;;;5013839;28;20072;-74
2022/03/06 06:22:15;;;;;;;15.50;13.38;;;0.20;99.90;;;;;;5012534;28;20021;-74
2022/03/06 06:24:41;;;;;;;16.38;13.63;;;0.20;99.90;;;;;;5016184;28;20022;-74
2022/03/06 06:27:06;;;;;;;14.68;13.18;;;0.30;99.90;;;;;;5033382;28;20029;-74
2022/03/06 06:29:32;;;;;;;14.63;12.82;;;0.30;99.90;;;;;;5018611;28;20435;-76
2022/03/06 06:31:58;;;;;;;15.27;13.45;;;0.30;99.90;;;;;;5021082;28;20049;-75
2022/03/06 06:34:24;;;;;;;14.95;13.35;;;0.30;99.90;;;;;;5026440;28;20021;-74
2022/03/06 06:36:50;;;;;;;15.05;12.48;;;0.30;99.90;;;;;;5022406;28;20033;-74
2022/03/06 06:39:15;;;;;;;14.77;12.40;;;0.40;99.90;;;;;;5019742;28;20053;-74
2022/03/06 06:41:41;;;;;;;15.70;12.23;;;0.50;99.90;;;;;;5024022;28;20389;-74
2022/03/06 06:44:08;;;;;;;13.20;11.90;;;0.50;99.90;;;;;;5020663;28;20054;-74
2022/03/06 06:46:34;;;;;;;14.20;12.18;;;0.70;99.90;;;;;;5023865;28;20520;-74
2022/03/06 06:49:00;;;;;;;13.85;12.40;;;0.60;99.90;;;;;;5026212;28;20033;-74
2022/03/06 06:51:27;;;;;;;13.90;11.75;;;0.70;99.90;;;;;;5021799;28;20025;-74
2022/03/06 06:53:53;;;;;;;13.20;11.82;;;0.70;99.90;;;;;;5019564;28;20023;-74
2022/03/06 06:56:19;;;;;;;14.55;12.07;;;0.70;99.90;;;;;;5023596;28;20041;-74
2022/03/06 06:58:44;;;;;;;14.82;12.27;;;0.70;99.90;;;;;;5026108;28;20053;-74
2022/03/06 07:01:10;;;;;;;14.13;11.27;;;0.70;99.90;;;;;;5020822;28;20488;-74
2022/03/06 07:03:36;;;;;;;13.27;11.88;;;0.70;99.90;;;;;;5019392;28;20029;-74
2022/03/06 07:06:01;;;;;;;14.32;12.82;;;0.70;99.90;;;;;;5023338;28;20057;-73
2022/03/06 07:08:27;;;;;;;16.27;13.98;;;0.80;99.90;;;;;;5024592;28;20033;-75
2022/03/06 07:10:52;;;;;;;19.08;16.40;;;0.80;99.90;;;;;;5021629;28;20025;-74
2022/03/06 07:13:18;;;;;;;13.25;11.73;;;0.80;99.90;;;;;;5017702;28;20052;-74
2022/03/06 07:15:43;;;;;;;13.55;12.15;;;0.90;99.90;;;;;;5022018;28;20069;-74
2022/03/06 07:18:09;;;;;;;14.57;12.02;;;0.90;99.90;;;;;;5025851;28;20033;-73
2022/03/06 07:20:36;;;;;;;13.77;12.30;;;1.00;99.90;;;;;;5021964;28;20032;-75
2022/03/06 07:23:01;;;;;;;13.65;12.25;;;1.10;99.90;;;;;;5026139;28;20514;-75
2022/03/06 07:25:27;;;;;;;14.07;12.60;;;1.20;99.90;;;;;;5013215;28;20026;-75
2022/03/06 07:27:52;;;;;;;15.15;12.18;;;1.30;99.90;;;;;;5021594;28;20036;-76
2022/03/06 07:30:18;;;;;;;14.63;12.50;;;1.30;99.90;;;;;;5022105;28;20040;-75
2022/03/06 07:32:45;;;;;;;16.27;13.38;;;1.30;99.90;;;;;;5025405;28;20491;-70
2022/03/06 07:35:12;;;;;;;16.52;13.57;;;1.20;99.90;;;;;;5030951;28;20072;-74
2022/03/06 07:37:38;;;;;;;14.40;12.90;;;1.10;99.90;;;;;;5017738;28;20046;-74
2022/03/06 07:40:04;;;;;;;15.10;12.93;;;1.30;99.90;;;;;;5022017;28;20056;-76
2022/03/06 07:42:30;;;;;;;13.95;12.45;;;1.20;99.90;;;;;;5024247;28;20064;-75
2022/03/06 07:44:56;;;;;;;15.68;13.88;;;1.30;99.90;;;;;;5010988;28;20026;-75
2022/03/06 07:47:22;;;;;;;18.33;14.23;;;1.30;99.90;;;;;;5013105;28;20037;-75
2022/03/06 07:49:47;;;;;;;16.40;13.43;;;1.40;99.90;;;;;;5023115;28;20034;-74
2022/03/06 07:52:13;;;;;;;14.60;13.02;;;1.40;99.90;;;;;;5024122;28;20033;-74
2022/03/06 07:54:38;;;;;;;15.52;13.55;;;1.40;99.90;;;;;;5021143;28;20017;-77
2022/03/06 07:57:04;;;;;;;16.60;14.00;;;1.40;99.90;;;;;;5019512;28;20109;-76
2022/03/06 07:59:30;;;;;;;16.38;13.27;;;1.50;99.90;;;;;;5023545;28;20048;-75
2022/03/06 08:01:55;;;;;;;16.05;14.07;;;1.60;99.90;;;;;;5023784;28;20029;-75
2022/03/06 08:04:21;;;;;;;13.48;12.05;;;1.70;99.90;;;;;;5011974;28;20022;-75
2022/03/06 08:06:47;;;;;;;13.88;12.43;;;1.70;99.90;;;;;;5012178;28;20025;-75
2022/03/06 08:09:13;;;;;;;16.67;12.52;;;1.90;99.90;;;;;;5017565;28;20105;-75
2022/03/06 08:11:39;;;;;;;15.98;12.77;;;1.80;99.90;;;;;;5012190;28;20113;-75
2022/03/06 08:14:04;;;;;;;14.20;12.50;;;1.90;99.90;;;;;;5022169;28;20116;-75
2022/03/06 08:16:30;;;;;;;15.55;12.65;;;1.90;99.90;;;;;;5023914;28;20025;-75
2022/03/06 08:18:55;;;;;;;15.43;12.48;;;2.00;99.90;;;;;;5011884;28;20096;-75
2022/03/06 08:21:21;;;;;;;13.65;12.25;;;2.00;99.90;;;;;;5024883;28;20021;-75
2022/03/06 08:23:49;;;;;;;15.52;12.05;;;2.10;99.90;;;;;;5018584;28;20037;-75
2022/03/06 08:26:15;;;;;;;14.20;12.70;;;2.20;99.90;;;;;;5013229;28;20077;-75
2022/03/06 08:28:40;;;;;;;14.15;11.90;;;2.30;99.90;;;;;;5019041;28;20065;-75
2022/03/06 08:31:06;;;;;;;13.75;12.10;;;2.50;99.90;;;;;;5014691;28;20037;-75
2022/03/06 08:33:32;;;;;;;14.32;12.23;;;2.40;99.90;;;;;;5011731;28;20113;-75
2022/03/06 08:35:58;;;;;;;15.55;12.30;;;2.40;99.90;;;;;;5024737;28;20067;-75
2022/03/06 08:38:23;;;;;;;13.68;11.35;;;2.40;99.90;;;;;;5020454;28;20113;-75
2022/03/06 08:40:49;;;;;;;13.27;11.45;;;2.40;99.90;;;;;;5014624;28;20117;-75
2022/03/06 08:43:15;;;;;;;12.75;11.07;;;2.50;99.90;;;;;;5020036;28;20021;-75
2022/03/06 08:45:40;;;;;;;16.25;11.77;;;2.60;99.90;;;;;;5016923;28;20053;-76
2022/03/06 08:48:06;;;;;;;13.05;11.48;;;2.70;99.90;;;;;;5021861;28;20037;-76
2022/03/06 08:50:31;;;;;;;14.73;11.73;;;2.90;99.90;;;;;;5024637;28;20052;-77
2022/03/06 08:52:57;;;;;;;14.23;11.70;;;2.80;99.90;;;;;;5019662;28;20136;-76
2022/03/06 08:55:22;;;;;;;14.57;12.13;;;2.80;99.90;;;;;;5018118;28;20072;-75
2022/03/06 08:57:48;;;;;;;12.30;11.00;;;2.80;99.90;;;;;;5022080;28;20036;-75
2022/03/06 09:00:13;;;;;;;11.23;10.13;;;2.90;99.90;;;;;;5025545;28;20476;-75
2022/03/06 09:02:39;;;;;;;12.20;10.93;;;2.90;99.90;;;;;;5023491;28;20030;-75
2022/03/06 09:05:05;;;;;;;13.52;11.70;;;3.10;99.90;;;;;;5024965;28;20025;-75
2022/03/06 09:07:31;;;;;;;14.73;12.07;;;3.00;99.90;;;;;;5023246;28;20026;-74
2022/03/06 09:09:56;;;;;;;11.23;9.95;;;3.00;99.90;;;;;;5024487;28;20032;-74
2022/03/06 09:12:22;;;;;;;12.73;10.88;;;3.00;99.90;;;;;;5046309;28;20036;-74
2022/03/06 09:14:47;;;;;;;12.50;11.18;;;3.00;99.90;;;;;;5017878;28;20022;-74
2022/03/06 09:17:13;;;;;;;12.35;10.82;;;3.10;99.90;;;;;;5022683;28;20030;-74
2022/03/06 09:19:39;;;;;;;12.73;10.27;;;3.10;99.90;;;;;;5012437;28;20026;-75
2022/03/06 09:22:05;;;;;;;12.38;10.38;;;3.10;99.90;;;;;;5014896;28;20096;-74
2022/03/06 09:24:31;;;;;;;12.68;11.13;;;3.20;99.90;;;;;;5015159;28;20098;-74
2022/03/06 09:26:57;;;;;;;11.70;10.32;;;3.20;99.90;;;;;;5014248;28;20021;-74
2022/03/06 09:29:22;;;;;;;12.55;10.70;;;3.40;99.90;;;;;;5017251;28;20022;-74
2022/03/06 09:31:48;;;;;;;11.52;10.32;;;3.40;99.90;;;;;;5016963;28;20092;-77
2022/03/06 09:34:13;;;;;;;11.57;10.40;;;3.40;99.90;;;;;;5012914;28;20026;-74
2022/03/06 09:36:39;;;;;;;12.25;10.57;;;3.40;99.90;;;;;;5014279;28;20054;-74
2022/03/06 09:39:05;;;;;;;12.48;11.18;;;3.20;99.90;;;;;;5021156;28;20029;-74
2022/03/06 09:41:36;;;;;;;11.55;10.25;;;3.20;99.90;;;;;;5015756;28;20032;-74
2022/03/06 09:44:05;;;;;;;12.27;10.50;;;3.20;99.90;;;;;;5018813;28;20079;-74
2022/03/06 09:46:33;;;;;;;11.65;10.43;;;3.30;99.90;;;;;;5031650;28;20026;-74
2022/03/06 09:49:00;;;;;;;11.38;9.50;;;3.40;99.90;;;;;;5012572;28;20026;-75
2022/03/06 09:51:26;;;;;;;12.20;11.00;;;3.40;99.90;;;;;;5016912;28;20502;-75
2022/03/06 09:53:51;;;;;;;24.73;20.00;;;3.50;99.90;;;;;;5014123;28;20025;-75
2022/03/06 09:56:17;;;;;;;11.65;10.25;;;3.30;99.90;;;;;;5022801;28;20104;-74
2022/03/06 09:58:43;;;;;;;10.57;9.48;;;3.30;99.90;;;;;;5016186;28;20022;-76
2022/03/06 10:01:08;;;;;;;6.78;6.15;;;3.40;99.90;;;;;;5006141;28;20106;-75
2022/03/06 10:03:37;;;;;;;10.35;7.90;;;3.20;99.90;;;;;;5017751;28;20508;-75
2022/03/06 10:06:07;;;;;;;8.13;7.35;;;3.20;99.90;;;;;;5023388;28;20104;-75
2022/03/06 10:08:33;;;;;;;8.40;7.47;;;3.20;99.90;;;;;;5018634;28;20035;-75
2022/03/06 10:11:02;;;;;;;8.80;7.90;;;3.20;99.90;;;;;;5015744;28;20037;-75
2022/03/06 10:13:52;;;;;;;8.85;7.93;;;3.20;99.90;;;;;;5013694;28;20018;-75
2022/03/06 10:16:19;;;;;;;10.00;7.45;;;3.20;99.90;;;;;;5006694;28;20061;-75
2022/03/06 10:18:54;;;;;;;9.18;8.32;;;3.40;99.90;;;;;;5006318;28;20017;-75
2022/03/06 10:21:25;;;;;;;9.32;7.95;;;3.50;99.90;;;;;;5018761;28;20113;-75
2022/03/06 10:23:56;;;;;;;9.05;7.40;;;3.70;99.90;;;;;;5022033;28;20022;-76
2022/03/06 10:26:27;;;;;;;9.48;8.55;;;3.70;99.90;;;;;;5014551;28;20033;-76
2022/03/06 10:28:56;;;;;;;9.52;8.60;;;3.60;99.90;;;;;;5029107;28;20029;-75
2022/03/06 10:31:24;;;;;;;9.32;8.35;;;3.40;99.90;;;;;;5019292;28;20105;-75
2022/03/06 10:34:05;;;;;;;8.70;7.80;;;3.30;99.90;;;;;;5022455;28;20021;-75
2022/03/06 10:36:35;;;;;;;9.07;8.18;;;3.30;99.90;;;;;;5011842;28;20041;-76
2022/03/06 10:39:01;;;;;;;9.27;8.25;;;3.30;99.90;;;;;;5010069;28;20042;-75
2022/03/06 10:41:42;;;;;;;8.93;8.02;;;3.30;99.90;;;;;;5021463;28;20515;-76
2022/03/06 10:44:10;;;;;;;10.10;9.10;;;3.20;99.90;;;;;;5014758;28;20060;-76
2022/03/06 10:46:36;;;;;;;9.77;8.77;;;3.30;99.90;;;;;;5025585;28;20091;-75
2022/03/06 10:49:13;;;;;;;9.93;8.93;;;3.30;99.90;;;;;;5021656;28;20472;-75
2022/03/06 10:51:41;;;;;;;9.68;8.68;;;3.40;99.90;;;;;;5013034;28;20472;-75
2022/03/06 10:54:07;;;;;;;10.02;9.07;;;3.40;99.90;;;;;;5026086;28;20026;-75
2022/03/06 10:56:33;;;;;;;22.83;18.85;;;3.30;99.90;;;;;;5022109;28;20100;-75
2022/03/06 10:58:59;;;;;;;9.85;8.75;;;3.70;99.90;;;;;;5018864;28;20057;-74
2022/03/06 11:01:26;;;;;;;11.13;9.23;;;4.00;99.90;;;;;;5021927;28;20488;-73
2022/03/06 11:03:51;;;;;;;9.98;8.98;;;4.10;99.90;;;;;;5035881;28;20113;-73
2022/03/06 11:06:19;;;;;;;11.55;10.35;;;4.10;99.90;;;;;;5020993;28;20069;-73
2022/03/06 11:08:45;;;;;;;9.52;8.70;;;3.90;99.90;;;;;;5018776;28;20048;-74
2022/03/06 11:11:12;;;;;;;11.40;9.20;;;3.80;99.90;;;;;;5019746;28;20460;-74
2022/03/06 11:13:38;;;;;;;10.90;9.15;;;3.50;99.90;;;;;;5015218;28;20025;-74
2022/03/06 11:16:04;;;;;;;10.35;9.35;;;3.50;99.90;;;;;;5021108;28;20431;-74
2022/03/06 11:18:30;;;;;;;10.13;9.10;;;3.60;99.90;;;;;;5015791;28;20025;-74
2022/03/06 11:20:59;;;;;;;10.45;9.45;;;3.50;99.90;;;;;;5010339;28;20026;-74
2022/03/06 11:23:43;;;;;;;14.48;12.98;;;3.50;99.90;;;;;;5008312;28;20197;-74
2022/03/06 11:26:15;;;;;;;10.88;9.88;;;3.80;99.90;;;;;;5009721;28;20049;-74
2022/03/06 11:28:43;;;;;;;10.88;9.77;;;3.80;99.90;;;;;;5020178;28;20083;-74
2022/03/06 11:31:09;;;;;;;11.02;9.93;;;3.80;99.90;;;;;;5017934;28;20037;-74
2022/03/06 11:33:52;;;;;;;10.25;8.73;;;3.70;99.90;;;;;;5021178;28;20025;-74
2022/03/06 11:36:20;;;;;;;10.27;9.20;;;3.80;99.90;;;;;;5013623;28;20018;-74
2022/03/06 11:38:48;;;;;;;11.02;9.93;;;3.70;99.90;;;;;;5012032;28;20041;-74
2022/03/06 11:41:15;;;;;;;12.13;10.82;;;3.90;99.90;;;;;;5011602;28;20022;-74
2022/03/06 11:43:44;;;;;;;11.15;10.05;;;3.70;99.90;;;;;;5009774;28;20515;-74
2022/03/06 11:46:18;;;;;;;11.35;10.02;;;3.70;99.90;;;;;;5012199;28;20030;-74
2022/03/06 11:48:44;;;;;;;11.60;10.27;;;3.50;99.90;;;;;;5009348;28;20030;-74
2022/03/06 11:51:22;;;;;;;11.20;10.10;;;3.60;99.90;;;;;;5013802;28;20040;-74
2022/03/06 11:53:57;;;;;;;12.95;11.15;;;3.50;99.90;;;;;;5010138;28;20521;-74
2022/03/06 11:58:59;;;;;;;12.38;11.05;;;3.40;99.90;;;;;;5006591;28;20037;-73
2022/03/06 12:01:33;;;;;;;11.98;10.57;;;3.40;99.90;;;;;;5006865;28;20030;-74
2022/03/06 12:04:16;;;;;;;12.00;10.80;;;3.50;99.90;;;;;;5006099;28;20018;-74
2022/03/06 12:06:44;;;;;;;11.85;10.75;;;3.40;99.90;;;;;;5011086;28;20050;-74
2022/03/06 12:09:11;;;;;;;11.85;10.65;;;3.10;99.90;;;;;;5014694;28;20032;-74
2022/03/06 12:11:38;;;;;;;12.30;11.10;;;3.00;99.90;;;;;;5009398;28;20022;-76
2022/03/06 12:14:22;;;;;;;14.00;12.57;;;2.90;99.90;;;;;;5008605;28;20041;-76
2022/03/06 12:17:03;;;;;;;14.55;13.05;;;2.80;99.90;;;;;;5012878;28;20022;-77
2022/03/06 12:19:54;;;;;;;13.98;12.63;;;2.90;99.90;;;;;;5018100;28;20075;-77
2022/03/06 12:22:33;;;;;;;16.00;14.27;;;3.00;99.90;;;;;;5007907;28;20025;-76
2022/03/06 12:25:08;;;;;;;15.73;14.13;;;2.80;99.90;;;;;;5030484;28;20025;-76
2022/03/06 12:27:36;;;;;;;15.23;13.63;;;2.70;99.90;;;;;;5019054;28;20052;-75
2022/03/06 12:30:08;;;;;;;14.90;13.30;;;2.50;99.90;;;;;;5017685;28;20087;-75
2022/03/06 12:32:43;;;;;;;15.75;14.05;;;2.50;99.90;;;;;;5017867;28;20491;-75
2022/03/06 12:35:11;;;;;;;16.75;14.20;;;2.40;99.90;;;;;;5023446;28;20023;-75
2022/03/06 12:37:38;;;;;;;15.20;13.60;;;2.40;99.90;;;;;;5024987;28;20049;-76